Quito, Tennessee
Current Conditions -  °F | °C
As of 4:55 AM on Monday 22 Dec 2014 (Local Time) from KNQA Reporting Station
Overcast Overcast  
Wind Chill: 44°   Ceiling: 300
Heat Index: 46°   Visibility: 3mi
Dew Point: 46°   Wind: 6mph
Humidity: 100%   Direction: 140°SE
Pressure: 29.84"   Gusts: NA
Location:  35.3343°N, 89.9316°W
Report Text: KNQA 221055Z AUTO 14005KT 3SM OVC003 08/08 A2984 RMK
Loading
Personal Weather Stations






























Interactive Weather Map New forecast layout! Learn more

10-Day Weather Forecast

Advertisements
Track Severe Weather on mobile